Hlavní strana
METAR-TAF:

METAR-TAF

Letiště :

Lawson Army Airfield

Fort Benning / Columbus, Georgie, Spojené státy americké

zeměpisná šířka: 32-20N, zeměpisná délka: 084-50W, výška: 71 m

Aktuální stav počasí

Zpráva byla vytvořena před 25 minutami, v 10:56 UTC
Východojihovýchodní vítr 3 kt
Teplota 18°C
Vlhkost vzduchu 100%
Tlak 1021 hPa
Viditelnost: 11.3 km
Jasno

METAR: KLSF 241056Z AUTO 12003KT 7SM CLR 18/18 A3016 RMK AO2 SLP216 T01810181 $

Čas: 07:21 (11:21 UTC)

Předpověď počasí

Zpráva byla vytvořena před 1 hodinou a 36 minutami, v 09:45 UTC
Předpověď platná od 24 v 09 UTC do 25 v 15 UTC
vítr z různých směrů 6 kt
Viditelnost: 6000 m
Skoro jasno ve výšce 4500 ft
kouřmo
Dočasný
od 24 v 09 UTC do 24 v 12 UTC
Viditelnost: 1600 m
kouřmo
Změna
od 24 v 12 UTC do 24 v 13 UTC
vítr z různých směrů 6 kt
Viditelnost 10 km a více
Skoro jasno ve výšce 4500 ft

TAF: KLSF 240945Z 2409/2515 VRB06KT 6000 BR FEW045 QNH3012INS TEMPO 2409/2412 1600 BR BECMG 2412/2413 VRB06KT 9999 NSW FEW045 QNH3008INS TX35/2421Z TN19/2409Z

Stav a předpovědi počasí z více než 4 000 letišť (zprávy METAR a TAF).

Červené a žluté tečky na mapě představují dostupné meteorologické stanice.

Když kurzor umístíte na tečku, zobrazí se název stanice.

Pak kliknutím zobrazíte stav a předpověď počasí.

Chcete-li změnit mapu, kliknutím na zelené tlačítko se znaménkem +mapu přiblížíte, kliknutím na zelené tlačítko se znaménkem – mapu oddálíte a kliknutím na zelené šipky přejdete na sousední mapy.


METAR-TAF: